Time;durP1;ratioP1;P1;durP2;ratioP2;P2;SDS_P1;SDS_P2;PMS_P1;PMS_P2;Temp;Humidity;BMP_temperature;BMP_pressure;BME280_temperature;BME280_humidity;BME280_pressure;Samples;Min_cycle;Max_cycle;Signal;HPM_P1;HPM_P2
2022/08/05 00:02:27;;;;;;;6.73;3.80;;;26.40;55.70;;;;;;5024171;28;20506;-80
2022/08/05 00:04:56;;;;;;;10.23;3.37;;;26.30;55.80;;;;;;5027434;28;20988;-79
2022/08/05 00:07:24;;;;;;;6.37;3.93;;;26.30;55.90;;;;;;5027243;28;20462;-80
2022/08/05 00:10:14;;;;;;;7.03;3.30;;;26.20;56.00;;;;;;5016085;28;20476;-79
2022/08/05 00:12:41;;;;;;;6.10;3.03;;;26.20;56.10;;;;;;5035180;28;21002;-79
2022/08/05 00:15:24;;;;;;;7.23;3.40;;;26.30;56.20;;;;;;5028658;28;20553;-80
2022/08/05 00:18:12;;;;;;;6.67;4.17;;;26.30;56.20;;;;;;5024573;28;20468;-80
2022/08/05 00:20:50;;;;;;;8.47;3.40;;;26.20;56.20;;;;;;5026288;28;20492;-80
2022/08/05 00:23:18;;;;;;;6.90;3.80;;;26.20;56.30;;;;;;5032503;28;20461;-80
2022/08/05 00:26:08;;;;;;;5.60;3.63;;;26.20;56.40;;;;;;5024892;28;20449;-80
2022/08/05 00:28:36;;;;;;;6.00;3.60;;;26.20;56.30;;;;;;5012604;28;20552;-79
2022/08/05 00:31:07;;;;;;;12.23;3.10;;;26.10;56.20;;;;;;5026259;28;20496;-80
2022/08/05 00:33:37;;;;;;;5.70;3.27;;;26.10;56.40;;;;;;5023741;28;20529;-80
2022/08/05 00:36:25;;;;;;;6.90;3.50;;;26.10;56.50;;;;;;5025550;28;20528;-79
2022/08/05 00:39:13;;;;;;;10.00;3.30;;;26.10;56.60;;;;;;5024975;28;20481;-79
2022/08/05 00:41:46;;;;;;;4.60;2.80;;;26.10;56.60;;;;;;5012607;28;20488;-79
2022/08/05 00:44:22;;;;;;;8.07;3.70;;;26.10;56.70;;;;;;5025716;28;20541;-79
2022/08/05 00:46:57;;;;;;;8.83;3.20;;;26.00;56.70;;;;;;5025351;28;21087;-78
2022/08/05 00:49:32;;;;;;;7.17;3.40;;;26.00;56.80;;;;;;5022011;28;20760;-79
2022/08/05 00:52:18;;;;;;;5.07;3.00;;;26.00;56.90;;;;;;5012745;28;20508;-79
2022/08/05 00:54:55;;;;;;;5.97;3.80;;;26.00;57.00;;;;;;5010718;28;20529;-79
2022/08/05 00:57:26;;;;;;;9.23;4.27;;;26.00;57.10;;;;;;5030958;28;20925;-78
2022/08/05 01:00:14;;;;;;;4.90;3.07;;;26.00;57.20;;;;;;5024984;28;20931;-79
2022/08/05 01:02:46;;;;;;;6.57;3.90;;;25.90;57.30;;;;;;5013252;28;20452;-79
2022/08/05 01:05:17;;;;;;;6.40;4.00;;;25.90;57.60;;;;;;5022234;28;20470;-79
2022/08/05 01:07:45;;;;;;;7.80;4.53;;;25.80;57.90;;;;;;5025642;28;21926;-78
2022/08/05 01:10:40;;;;;;;6.10;4.20;;;25.80;58.10;;;;;;5023856;28;20484;-78
2022/08/05 01:13:24;;;;;;;9.33;4.03;;;25.90;58.30;;;;;;5024346;28;20544;-78
2022/08/05 01:16:20;;;;;;;6.33;4.00;;;25.90;58.30;;;;;;5022983;28;20650;-78
2022/08/05 01:18:59;;;;;;;5.73;3.40;;;25.90;58.40;;;;;;5029036;28;20512;-78
2022/08/05 01:21:54;;;;;;;7.00;3.90;;;26.00;58.40;;;;;;5025725;28;20486;-78
2022/08/05 01:24:41;;;;;;;6.13;3.63;;;26.00;58.30;;;;;;5024328;28;20457;-78
2022/08/05 01:27:25;;;;;;;9.47;4.10;;;26.00;58.40;;;;;;5024052;28;20468;-79
2022/08/05 01:30:01;;;;;;;11.90;4.30;;;26.00;58.40;;;;;;5023785;28;20472;-79
2022/08/05 01:32:34;;;;;;;7.70;3.90;;;26.10;58.50;;;;;;5025179;28;20484;-78
2022/08/05 01:35:08;;;;;;;7.80;3.67;;;26.20;58.50;;;;;;5026895;28;21210;-79
2022/08/05 01:37:43;;;;;;;7.13;3.70;;;26.20;58.70;;;;;;5025327;28;20473;-79
2022/08/05 01:40:14;;;;;;;11.10;4.73;;;26.20;58.70;;;;;;5022516;28;20492;-79
2022/08/05 01:42:46;;;;;;;6.33;3.70;;;26.20;58.80;;;;;;5024607;28;20843;-79
2022/08/05 01:45:16;;;;;;;10.93;4.37;;;26.30;59.00;;;;;;5018708;28;20461;-79
2022/08/05 01:47:49;;;;;;;7.30;4.10;;;26.30;59.10;;;;;;5026506;28;21048;-79
2022/08/05 01:50:26;;;;;;;6.00;3.77;;;26.30;59.20;;;;;;5027117;28;20540;-79
2022/08/05 01:53:00;;;;;;;8.20;3.90;;;26.40;59.30;;;;;;5026057;28;20466;-79
2022/08/05 01:55:32;;;;;;;7.70;3.53;;;26.40;59.40;;;;;;5027413;28;20585;-79
2022/08/05 01:58:05;;;;;;;9.20;4.10;;;26.40;59.50;;;;;;5027835;28;20541;-78
2022/08/05 02:00:47;;;;;;;8.57;3.53;;;26.50;59.70;;;;;;5027664;28;20617;-78
2022/08/05 02:03:19;;;;;;;12.13;4.07;;;26.50;60.00;;;;;;5024494;28;20469;-78
2022/08/05 02:05:56;;;;;;;7.53;3.87;;;26.50;60.30;;;;;;5029886;28;20465;-78
2022/08/05 02:08:27;;;;;;;6.80;3.40;;;26.60;60.80;;;;;;5032174;28;20469;-78
2022/08/05 02:11:04;;;;;;;8.20;3.77;;;26.50;61.00;;;;;;5031379;28;20511;-78
2022/08/05 02:13:38;;;;;;;7.07;3.37;;;26.50;61.20;;;;;;5031532;28;20469;-77
2022/08/05 02:16:25;;;;;;;6.93;3.90;;;26.50;61.70;;;;;;5028476;28;20465;-77
2022/08/05 02:18:58;;;;;;;8.90;3.40;;;26.50;61.90;;;;;;5024498;28;20497;-78
2022/08/05 02:21:33;;;;;;;14.37;4.87;;;26.50;62.00;;;;;;5010081;28;20572;-77
2022/08/05 02:24:18;;;;;;;8.53;3.77;;;26.60;62.20;;;;;;5033636;28;20910;-78
2022/08/05 02:26:55;;;;;;;17.00;4.47;;;26.60;62.30;;;;;;5023584;28;20471;-77
2022/08/05 02:29:25;;;;;;;14.07;4.50;;;26.60;62.30;;;;;;5029592;28;20461;-79
2022/08/05 02:32:20;;;;;;;9.50;3.80;;;26.60;62.40;;;;;;5008048;28;20497;-79
2022/08/05 02:34:58;;;;;;;8.47;3.83;;;26.70;62.40;;;;;;5025808;28;20543;-79
2022/08/05 02:37:32;;;;;;;7.73;3.87;;;26.70;62.60;;;;;;5024051;28;21007;-78
2022/08/05 02:40:02;;;;;;;9.80;3.80;;;26.70;62.50;;;;;;5024054;28;20506;-78
2022/08/05 02:42:32;;;;;;;7.10;3.40;;;26.70;62.50;;;;;;5024809;28;20470;-79
2022/08/05 02:45:04;;;;;;;6.33;3.10;;;26.80;62.70;;;;;;5024393;28;20829;-79
2022/08/05 02:47:36;;;;;;;7.90;3.63;;;26.80;62.70;;;;;;5023732;28;20674;-78
2022/08/05 02:50:25;;;;;;;8.20;4.07;;;26.80;62.70;;;;;;5007153;28;20510;-79
2022/08/05 02:52:54;;;;;;;7.67;3.93;;;26.80;62.70;;;;;;5019319;28;20470;-79
2022/08/05 02:55:23;;;;;;;7.93;4.00;;;26.80;62.80;;;;;;5024486;28;20471;-79
2022/08/05 02:58:14;;;;;;;8.90;3.70;;;26.80;62.80;;;;;;5023106;28;20536;-79
2022/08/05 03:00:44;;;;;;;10.13;4.47;;;26.90;62.80;;;;;;5028340;28;20485;-79
2022/08/05 03:03:16;;;;;;;8.00;3.80;;;26.90;62.80;;;;;;5025908;28;20842;-80
2022/08/05 03:05:46;;;;;;;11.13;4.17;;;26.90;62.70;;;;;;5025051;28;20469;-79
2022/08/05 03:08:35;;;;;;;9.67;4.27;;;27.00;62.70;;;;;;5022790;28;20463;-79
2022/08/05 03:11:03;;;;;;;7.13;3.50;;;27.00;62.70;;;;;;5026217;28;20481;-79
2022/08/05 03:13:52;;;;;;;11.80;4.07;;;27.00;62.70;;;;;;5024378;28;20465;-79
2022/08/05 03:16:30;;;;;;;9.50;3.50;;;26.90;62.70;;;;;;5016423;28;20468;-79
2022/08/05 03:18:59;;;;;;;6.73;3.50;;;26.90;62.70;;;;;;5025943;28;20455;-79
2022/08/05 03:21:39;;;;;;;8.60;4.13;;;27.00;62.70;;;;;;5011750;28;20953;-80
2022/08/05 03:24:16;;;;;;;8.50;3.63;;;27.00;62.80;;;;;;5024924;28;20466;-78
2022/08/05 03:26:53;;;;;;;8.80;4.37;;;27.00;62.80;;;;;;5023991;28;20469;-78
2022/08/05 03:29:21;;;;;;;9.03;3.83;;;27.00;62.80;;;;;;5025123;28;20455;-79
2022/08/05 03:31:49;;;;;;;8.63;4.40;;;27.00;62.80;;;;;;5022853;28;20504;-79
2022/08/05 03:34:27;;;;;;;9.70;3.80;;;27.10;62.70;;;;;;5023825;28;21030;-79
2022/08/05 03:36:55;;;;;;;8.13;4.07;;;27.10;62.70;;;;;;5021582;28;20477;-78
2022/08/05 03:39:23;;;;;;;8.60;3.83;;;27.10;62.70;;;;;;5029673;28;20548;-78
2022/08/05 03:41:54;;;;;;;8.40;4.10;;;27.00;62.60;;;;;;5024599;28;20495;-78
2022/08/05 03:44:23;;;;;;;6.53;3.63;;;27.00;62.60;;;;;;5025918;28;20517;-79
2022/08/05 03:46:56;;;;;;;9.63;3.80;;;27.00;62.70;;;;;;5027905;28;20535;-79
2022/08/05 03:49:25;;;;;;;7.93;3.97;;;26.90;62.70;;;;;;5030893;28;20465;-79
2022/08/05 03:52:22;;;;;;;12.27;3.97;;;26.90;62.70;;;;;;5025184;28;20478;-79
2022/08/05 03:55:14;;;;;;;7.80;4.03;;;26.90;62.80;;;;;;5026904;28;20506;-79
2022/08/05 03:58:03;;;;;;;6.80;3.77;;;26.80;62.90;;;;;;5031187;28;20465;-79
2022/08/05 04:00:32;;;;;;;6.50;3.50;;;26.80;62.90;;;;;;5027186;28;20583;-79
2022/08/05 04:03:02;;;;;;;7.93;3.90;;;26.80;63.00;;;;;;5014794;28;20462;-79
2022/08/05 04:05:34;;;;;;;7.77;3.90;;;26.80;63.00;;;;;;5027875;28;20466;-79
2022/08/05 04:08:04;;;;;;;7.90;3.63;;;26.80;63.10;;;;;;5027847;28;20451;-79
2022/08/05 04:10:53;;;;;;;8.27;3.97;;;26.80;63.20;;;;;;5026884;28;20486;-79
2022/08/05 04:13:22;;;;;;;9.47;4.00;;;26.70;63.30;;;;;;5025853;28;20991;-79
2022/08/05 04:15:50;;;;;;;6.90;3.50;;;26.70;63.30;;;;;;5027252;28;20511;-80
2022/08/05 04:18:31;;;;;;;10.83;3.83;;;26.70;63.40;;;;;;5027554;28;20467;-80
2022/08/05 04:21:04;;;;;;;8.00;3.63;;;26.70;63.40;;;;;;5025024;28;20483;-80
2022/08/05 04:23:34;;;;;;;11.17;4.40;;;26.70;63.50;;;;;;5022749;28;20551;-79
2022/08/05 04:26:22;;;;;;;8.97;4.10;;;26.70;63.60;;;;;;5025859;28;20468;-79
2022/08/05 04:28:50;;;;;;;9.80;4.10;;;26.60;63.60;;;;;;5026696;28;20465;-79
2022/08/05 04:31:19;;;;;;;10.80;4.57;;;26.50;63.80;;;;;;5023643;28;20502;-79
2022/08/05 04:33:48;;;;;;;8.03;3.60;;;26.50;63.90;;;;;;5012468;28;20597;-79
2022/08/05 04:36:37;;;;;;;8.03;3.73;;;26.50;64.00;;;;;;5022195;28;20963;-80
2022/08/05 04:39:17;;;;;;;9.20;4.23;;;26.50;64.10;;;;;;5013254;28;20469;-79
2022/08/05 04:41:45;;;;;;;12.27;4.10;;;26.50;64.20;;;;;;5026138;28;20492;-80
2022/08/05 04:44:15;;;;;;;7.80;3.83;;;26.60;64.20;;;;;;5027095;28;20462;-84
2022/08/05 04:46:55;;;;;;;9.70;4.40;;;26.60;64.30;;;;;;5024694;28;20540;-83
2022/08/05 04:49:25;;;;;;;6.73;3.67;;;26.70;64.20;;;;;;5024028;28;20465;-84
2022/08/05 04:52:14;;;;;;;8.97;4.07;;;26.70;64.30;;;;;;5017228;28;20486;-84
2022/08/05 04:54:42;;;;;;;7.30;4.30;;;26.70;64.30;;;;;;5026737;28;20456;-84
2022/08/05 04:57:10;;;;;;;9.20;4.17;;;26.80;64.40;;;;;;5025903;28;20998;-83
2022/08/05 04:59:38;;;;;;;9.97;4.87;;;26.80;64.40;;;;;;5028286;28;20452;-83
2022/08/05 05:02:07;;;;;;;8.80;4.10;;;26.90;64.30;;;;;;5005782;28;20485;-84
2022/08/05 05:04:56;;;;;;;9.27;4.90;;;26.90;64.30;;;;;;5026156;28;20536;-83
2022/08/05 05:07:31;;;;;;;9.10;4.13;;;26.90;64.30;;;;;;5026907;28;20457;-84
2022/08/05 05:10:04;;;;;;;8.10;4.33;;;26.90;64.30;;;;;;5012509;28;20521;-83
2022/08/05 05:12:33;;;;;;;6.50;3.23;;;26.90;64.30;;;;;;5027177;28;20453;-83
2022/08/05 05:15:05;;;;;;;7.80;4.33;;;26.80;64.10;;;;;;5028001;28;20500;-84
2022/08/05 05:17:38;;;;;;;10.03;3.20;;;26.70;64.00;;;;;;5027057;28;20457;-84
2022/08/05 05:20:24;;;;;;;6.63;3.57;;;26.60;64.20;;;;;;5027335;28;21014;-83
2022/08/05 05:22:57;;;;;;;8.40;2.73;;;26.60;64.00;;;;;;5026699;28;21413;-84
2022/08/05 05:25:25;;;;;;;6.93;3.50;;;26.60;63.90;;;;;;5027021;28;20462;-83
2022/08/05 05:28:07;;;;;;;6.30;3.00;;;26.70;63.90;;;;;;5026913;28;20450;-84
2022/08/05 05:30:36;;;;;;;5.43;3.13;;;26.70;63.80;;;;;;5027727;28;20543;-84
2022/08/05 05:33:05;;;;;;;6.67;3.10;;;26.70;63.70;;;;;;5029313;28;20859;-83
2022/08/05 05:35:44;;;;;;;7.17;3.20;;;26.80;63.60;;;;;;5026862;28;20445;-84
2022/08/05 05:38:13;;;;;;;5.57;2.87;;;26.80;63.50;;;;;;5015030;28;20550;-83
2022/08/05 05:40:49;;;;;;;7.03;3.30;;;26.70;63.40;;;;;;5027482;28;20490;-83
2022/08/05 05:43:19;;;;;;;5.20;2.83;;;26.60;63.40;;;;;;5025357;28;20516;-84
2022/08/05 05:46:07;;;;;;;6.83;3.40;;;26.60;63.60;;;;;;5026979;28;20497;-84
2022/08/05 05:48:43;;;;;;;7.63;3.40;;;26.60;63.60;;;;;;5026490;28;20997;-84
2022/08/05 05:51:18;;;;;;;7.83;3.10;;;26.60;63.70;;;;;;5015665;28;20496;-83
2022/08/05 05:53:47;;;;;;;6.50;3.37;;;26.60;63.70;;;;;;5023617;28;20823;-83
2022/08/05 05:56:25;;;;;;;7.90;3.43;;;26.60;63.70;;;;;;5025024;28;20569;-82
2022/08/05 05:59:02;;;;;;;6.63;2.93;;;26.60;63.80;;;;;;5024898;28;20456;-82
2022/08/05 06:01:33;;;;;;;7.03;3.33;;;26.60;63.90;;;;;;5023291;28;20561;-82
2022/08/05 06:04:06;;;;;;;8.60;3.60;;;26.60;64.10;;;;;;5024726;28;20597;-82
2022/08/05 06:06:34;;;;;;;7.13;3.10;;;27.10;64.70;;;;;;5028250;28;20458;-82
2022/08/05 06:09:05;;;;;;;6.50;3.50;;;27.60;63.90;;;;;;5023631;28;20941;-82
2022/08/05 06:11:35;;;;;;;7.40;3.83;;;28.00;63.90;;;;;;5024023;28;20483;-83
2022/08/05 06:14:06;;;;;;;7.60;3.03;;;28.80;63.10;;;;;;5025791;28;20456;-83
2022/08/05 06:16:34;;;;;;;6.00;3.27;;;29.50;61.70;;;;;;5026461;28;20470;-82
2022/08/05 06:19:04;;;;;;;12.10;3.87;;;29.50;60.60;;;;;;5026960;28;20460;-83
2022/08/05 06:21:36;;;;;;;6.90;3.07;;;29.30;60.20;;;;;;5025634;28;20491;-82
2022/08/05 06:24:11;;;;;;;6.40;3.27;;;29.00;60.20;;;;;;5018528;28;20476;-83
2022/08/05 06:26:42;;;;;;;7.03;3.70;;;28.70;60.50;;;;;;5027102;28;20463;-82
2022/08/05 06:29:20;;;;;;;7.70;3.60;;;28.40;60.80;;;;;;5020850;28;20469;-82
2022/08/05 06:32:08;;;;;;;7.97;3.90;;;28.20;61.20;;;;;;5024090;28;20908;-82
2022/08/05 06:34:52;;;;;;;8.30;3.10;;;28.00;61.60;;;;;;5023651;28;20912;-83
2022/08/05 06:37:24;;;;;;;8.63;4.60;;;27.80;62.00;;;;;;5027687;28;21039;-83
2022/08/05 06:40:14;;;;;;;8.17;3.87;;;27.70;62.30;;;;;;5025194;28;20487;-83
2022/08/05 06:42:49;;;;;;;9.57;4.20;;;27.60;62.60;;;;;;5025368;28;20485;-83
2022/08/05 06:45:19;;;;;;;8.00;3.83;;;27.50;62.90;;;;;;5023335;28;20455;-83
2022/08/05 06:48:07;;;;;;;8.07;4.50;;;27.40;63.10;;;;;;5024790;28;20464;-82
2022/08/05 06:50:55;;;;;;;9.07;3.83;;;27.40;63.30;;;;;;5026281;28;20487;-83
2022/08/05 06:53:23;;;;;;;9.70;4.43;;;27.40;63.50;;;;;;5025250;28;20558;-83
2022/08/05 06:55:58;;;;;;;7.50;3.50;;;27.40;63.60;;;;;;5025985;28;20956;-82
2022/08/05 06:58:27;;;;;;;7.90;4.00;;;27.30;63.80;;;;;;5028397;28;20455;-82
2022/08/05 07:01:05;;;;;;;7.20;3.73;;;27.30;63.80;;;;;;5025830;28;20475;-82
2022/08/05 07:03:34;;;;;;;6.47;3.93;;;27.30;64.00;;;;;;5023618;28;20475;-83
2022/08/05 07:06:03;;;;;;;6.70;3.60;;;27.30;64.20;;;;;;5029664;28;20462;-82
2022/08/05 07:08:41;;;;;;;6.90;3.77;;;27.30;64.30;;;;;;5025938;28;20462;-83
2022/08/05 07:11:11;;;;;;;8.33;4.00;;;27.30;64.40;;;;;;5026268;28;20481;-82
2022/08/05 07:19:35;;;;;;;8.10;4.47;;;27.30;64.70;;;;;;5022941;28;20478;-82
2022/08/05 07:22:23;;;;;;;8.33;4.17;;;27.30;64.70;;;;;;5029146;28;20487;-83
2022/08/05 07:24:58;;;;;;;10.23;4.80;;;27.40;64.80;;;;;;5032053;28;20478;-82
2022/08/05 07:27:27;;;;;;;7.30;3.93;;;27.40;64.90;;;;;;5029218;28;20466;-83
2022/08/05 07:30:15;;;;;;;8.40;3.93;;;27.40;64.90;;;;;;5026403;28;20486;-82
2022/08/05 07:32:57;;;;;;;8.70;4.30;;;27.40;64.90;;;;;;5029152;28;20954;-83
2022/08/05 07:35:25;;;;;;;8.50;3.70;;;27.40;64.90;;;;;;5030513;28;20482;-82
2022/08/05 07:38:13;;;;;;;8.90;4.10;;;27.40;64.90;;;;;;5026634;28;20505;-82
2022/08/05 07:41:01;;;;;;;6.10;3.50;;;27.40;64.70;;;;;;5029520;28;20479;-83
2022/08/05 07:43:51;;;;;;;8.23;4.53;;;27.40;64.70;;;;;;5025634;28;20543;-83
2022/08/05 07:46:22;;;;;;;8.10;3.87;;;27.40;64.70;;;;;;5027394;28;20487;-82
2022/08/05 07:48:52;;;;;;;9.17;4.00;;;27.40;64.70;;;;;;5024681;28;20462;-82
2022/08/05 07:51:33;;;;;;;9.03;4.07;;;27.40;64.70;;;;;;5027190;28;20497;-82
2022/08/05 07:54:07;;;;;;;6.90;3.63;;;27.50;64.70;;;;;;5027619;28;20499;-82
2022/08/05 07:56:36;;;;;;;6.50;3.60;;;27.50;64.60;;;;;;5028833;28;20552;-82
2022/08/05 07:59:26;;;;;;;6.43;3.80;;;27.60;64.60;;;;;;5022069;28;20467;-82
2022/08/05 08:02:08;;;;;;;7.03;3.30;;;27.60;64.50;;;;;;5024715;28;20481;-82
2022/08/05 08:04:45;;;;;;;7.43;3.80;;;27.60;64.30;;;;;;5007552;28;20461;-82
2022/08/05 08:07:13;;;;;;;7.77;3.23;;;27.60;64.20;;;;;;5026527;28;20467;-82
2022/08/05 08:09:44;;;;;;;5.80;3.33;;;27.60;64.20;;;;;;5036918;28;21879;-82
2022/08/05 08:12:13;;;;;;;7.10;3.90;;;27.60;64.20;;;;;;5017268;28;20467;-82
2022/08/05 08:15:03;;;;;;;12.33;3.53;;;27.60;64.20;;;;;;5012119;28;20478;-82
2022/08/05 08:17:36;;;;;;;6.20;3.40;;;27.60;64.20;;;;;;5025395;28;20531;-83
2022/08/05 08:20:05;;;;;;;7.27;3.50;;;27.70;64.10;;;;;;5029249;28;20486;-82
2022/08/05 08:22:54;;;;;;;8.63;3.93;;;27.70;64.00;;;;;;5026850;28;20992;-82
2022/08/05 08:25:23;;;;;;;5.97;3.43;;;27.70;63.80;;;;;;5028744;28;20497;-83
2022/08/05 08:28:11;;;;;;;5.70;3.50;;;27.70;63.80;;;;;;5027257;28;20463;-83
2022/08/05 08:30:46;;;;;;;5.80;3.57;;;27.80;63.60;;;;;;5027899;28;20485;-83
2022/08/05 08:33:17;;;;;;;7.77;4.07;;;27.80;63.50;;;;;;5028531;28;20541;-82
2022/08/05 08:35:46;;;;;;;6.10;3.43;;;27.70;63.30;;;;;;5029720;28;20446;-83
2022/08/05 08:38:20;;;;;;;7.30;2.80;;;27.80;63.10;;;;;;5027457;28;20583;-83
2022/08/05 08:41:06;;;;;;;6.90;3.13;;;27.90;62.80;;;;;;5027459;28;20490;-83
2022/08/05 08:43:34;;;;;;;6.50;3.23;;;27.90;62.50;;;;;;5021916;28;20479;-83
2022/08/05 08:46:26;;;;;;;7.67;3.33;;;28.00;62.40;;;;;;5026099;28;20478;-83
2022/08/05 08:48:55;;;;;;;5.70;3.37;;;28.10;62.20;;;;;;5025893;28;20451;-83
2022/08/05 08:51:48;;;;;;;8.53;3.20;;;28.10;62.00;;;;;;5029637;28;20498;-83
2022/08/05 08:54:36;;;;;;;8.60;3.37;;;28.20;61.60;;;;;;5031904;28;20471;-82
2022/08/05 08:57:09;;;;;;;5.70;3.00;;;28.20;61.50;;;;;;5032247;28;20528;-83
2022/08/05 08:59:41;;;;;;;5.97;3.30;;;28.30;61.40;;;;;;5030746;28;21000;-83
2022/08/05 09:02:19;;;;;;;5.80;3.10;;;28.30;61.20;;;;;;5031149;28;20496;-83
2022/08/05 09:04:51;;;;;;;6.30;3.20;;;28.40;61.10;;;;;;5032631;28;20543;-83
2022/08/05 09:07:39;;;;;;;5.90;2.93;;;28.40;61.10;;;;;;5030806;28;21017;-83
2022/08/05 09:10:25;;;;;;;7.00;3.60;;;28.40;60.90;;;;;;5032956;28;20514;-83
2022/08/05 09:12:56;;;;;;;6.43;3.20;;;28.50;60.80;;;;;;5028414;28;20569;-83
2022/08/05 09:15:32;;;;;;;5.87;3.20;;;28.50;60.70;;;;;;5031041;28;20516;-82
2022/08/05 09:18:08;;;;;;;6.53;3.47;;;28.60;60.50;;;;;;5033013;28;21001;-82
2022/08/05 09:20:36;;;;;;;5.40;3.37;;;28.60;60.50;;;;;;5026429;28;20537;-83
2022/08/05 09:23:10;;;;;;;7.73;3.30;;;28.70;60.40;;;;;;5029000;28;20498;-83
2022/08/05 09:25:49;;;;;;;7.63;3.90;;;28.70;60.30;;;;;;5029263;28;20446;-83
2022/08/05 09:28:34;;;;;;;6.23;3.17;;;28.80;60.20;;;;;;5025982;28;20470;-83
2022/08/05 09:31:05;;;;;;;7.70;2.80;;;28.90;59.80;;;;;;5028611;28;20475;-83
2022/08/05 09:33:57;;;;;;;6.40;2.70;;;28.90;59.80;;;;;;5025060;28;20458;-83
2022/08/05 09:36:39;;;;;;;6.47;3.13;;;28.90;59.60;;;;;;5027962;28;20512;-83
2022/08/05 09:39:23;;;;;;;5.90;2.60;;;29.00;59.10;;;;;;5010086;28;20458;-83
2022/08/05 09:42:11;;;;;;;5.20;2.33;;;29.10;58.70;;;;;;5025357;28;20465;-83
2022/08/05 09:44:48;;;;;;;5.33;2.17;;;29.20;57.60;;;;;;5013758;28;20463;-83
2022/08/05 09:47:20;;;;;;;6.20;2.73;;;29.20;57.60;;;;;;5027108;28;20486;-83
2022/08/05 09:49:51;;;;;;;5.60;2.63;;;29.30;57.20;;;;;;5027224;28;20520;-82
2022/08/05 09:52:31;;;;;;;5.20;2.10;;;29.30;56.80;;;;;;5025537;28;20487;-83
2022/08/05 09:55:02;;;;;;;5.23;2.13;;;29.30;56.60;;;;;;5028032;28;20454;-82
2022/08/05 09:57:50;;;;;;;5.10;2.23;;;29.20;56.30;;;;;;5024078;28;20515;-83
2022/08/05 10:00:25;;;;;;;5.70;2.70;;;29.20;55.70;;;;;;5026152;28;21085;-83
2022/08/05 10:02:55;;;;;;;5.60;2.60;;;29.10;56.00;;;;;;5027068;28;20455;-83
2022/08/05 10:05:28;;;;;;;5.90;2.73;;;29.00;56.20;;;;;;5033876;28;21090;-83
2022/08/05 10:08:01;;;;;;;5.90;2.33;;;29.00;56.20;;;;;;5027444;28;20450;-83
2022/08/05 10:10:49;;;;;;;6.07;3.20;;;29.00;56.10;;;;;;5026857;28;21144;-83
2022/08/05 10:13:32;;;;;;;5.10;2.70;;;28.90;56.20;;;;;;5027163;28;20470;-83
2022/08/05 10:16:32;;;;;;;6.47;2.67;;;29.00;56.10;;;;;;5024362;28;20509;-83
2022/08/05 10:19:09;;;;;;;5.07;2.80;;;29.00;56.20;;;;;;5024908;28;20844;-83
2022/08/05 10:21:40;;;;;;;5.73;2.63;;;29.10;56.40;;;;;;5036932;28;21137;-83
2022/08/05 10:24:11;;;;;;;4.57;2.30;;;29.10;56.30;;;;;;5026629;28;20995;-83
2022/08/05 10:26:43;;;;;;;4.80;2.40;;;29.20;56.20;;;;;;5026447;28;20981;-83
2022/08/05 10:29:21;;;;;;;6.20;2.90;;;29.20;55.90;;;;;;5022594;28;20469;-81
2022/08/05 10:32:09;;;;;;;4.80;2.43;;;29.20;55.70;;;;;;5020687;28;20487;-81
2022/08/05 10:34:58;;;;;;;5.80;2.47;;;29.30;55.60;;;;;;5017198;28;20456;-81
2022/08/05 10:37:30;;;;;;;5.17;2.90;;;29.30;55.40;;;;;;5025280;28;20560;-81
2022/08/05 10:40:21;;;;;;;5.60;2.80;;;29.30;55.30;;;;;;5023191;28;21069;-80
2022/08/05 10:43:01;;;;;;;5.07;2.37;;;29.40;55.20;;;;;;5024700;28;20544;-80
2022/08/05 10:45:33;;;;;;;5.23;2.70;;;29.40;55.20;;;;;;5023458;28;20493;-81
2022/08/05 10:48:31;;;;;;;5.20;2.87;;;29.40;55.10;;;;;;5013060;28;20890;-81
2022/08/05 10:51:20;;;;;;;6.77;2.67;;;29.50;54.90;;;;;;5013796;28;20509;-81
2022/08/05 10:53:57;;;;;;;5.63;2.53;;;29.50;54.80;;;;;;5029523;28;20458;-81
2022/08/05 10:56:46;;;;;;;5.90;2.90;;;29.60;54.70;;;;;;5027555;28;20961;-81
2022/08/05 10:59:25;;;;;;;7.00;2.97;;;29.60;54.40;;;;;;5027604;28;21138;-81
2022/08/05 11:02:14;;;;;;;6.57;2.53;;;29.60;54.60;;;;;;5027048;28;20493;-81
2022/08/05 11:05:05;;;;;;;9.00;2.60;;;29.60;54.70;;;;;;5026027;28;20576;-81
2022/08/05 11:07:33;;;;;;;6.10;2.47;;;29.70;54.70;;;;;;5026985;28;20463;-81
2022/08/05 11:10:24;;;;;;;4.70;2.27;;;29.70;54.60;;;;;;5017759;28;20483;-81
2022/08/05 11:12:56;;;;;;;5.90;2.47;;;29.60;54.10;;;;;;5025475;28;20497;-81
2022/08/05 11:15:28;;;;;;;5.60;2.57;;;29.60;53.70;;;;;;5026844;28;20535;-81
2022/08/05 11:18:34;;;;;;;6.00;2.80;;;29.60;54.10;;;;;;5023293;28;20470;-81
2022/08/05 11:21:02;;;;;;;6.90;2.60;;;29.60;54.30;;;;;;5026701;28;20548;-81
2022/08/05 11:23:43;;;;;;;5.53;2.60;;;29.60;54.30;;;;;;5027519;28;20458;-81
2022/08/05 11:26:32;;;;;;;6.63;2.10;;;29.70;54.10;;;;;;5014755;28;20451;-81
2022/08/05 11:29:03;;;;;;;7.90;2.67;;;29.70;53.90;;;;;;5032208;28;20474;-81
2022/08/05 11:31:42;;;;;;;7.80;2.37;;;29.70;53.40;;;;;;5025896;28;20494;-81
2022/08/05 11:34:37;;;;;;;7.83;2.40;;;29.60;52.90;;;;;;5028954;28;20457;-81
2022/08/05 11:37:06;;;;;;;5.17;2.33;;;29.60;53.30;;;;;;5005388;28;20454;-81
2022/08/05 11:39:54;;;;;;;5.90;2.70;;;29.70;53.30;;;;;;5028587;28;20458;-81
2022/08/05 11:42:33;;;;;;;9.47;2.13;;;29.70;53.00;;;;;;5027831;28;20560;-81
2022/08/05 11:45:08;;;;;;;4.60;2.17;;;29.70;53.00;;;;;;5028002;28;20477;-80
2022/08/05 11:47:53;;;;;;;4.60;2.37;;;29.70;53.10;;;;;;5027205;28;20550;-83
2022/08/05 11:50:22;;;;;;;4.53;2.37;;;29.70;52.80;;;;;;5037430;28;20509;-82
2022/08/05 11:52:52;;;;;;;4.90;2.37;;;29.70;52.80;;;;;;5026959;28;20458;-83
2022/08/05 11:55:25;;;;;;;5.20;2.17;;;29.70;52.90;;;;;;5029782;28;20494;-83
2022/08/05 11:58:04;;;;;;;4.30;2.20;;;29.70;52.90;;;;;;5026170;28;20529;-82
2022/08/05 12:00:39;;;;;;;5.40;2.00;;;29.60;52.80;;;;;;5030644;28;20911;-83
2022/08/05 12:03:19;;;;;;;5.30;2.30;;;29.60;52.70;;;;;;5030463;28;20464;-83
2022/08/05 12:06:00;;;;;;;5.60;2.20;;;29.60;52.80;;;;;;5030421;28;20570;-82
2022/08/05 12:08:29;;;;;;;4.43;2.23;;;29.50;53.00;;;;;;5029584;28;20462;-83
2022/08/05 12:10:59;;;;;;;4.87;2.10;;;29.50;53.10;;;;;;5029020;28;20513;-83
2022/08/05 12:13:34;;;;;;;4.83;2.33;;;29.60;53.20;;;;;;5028484;28;21288;-83
2022/08/05 12:16:20;;;;;;;4.93;2.40;;;29.60;53.30;;;;;;5023551;28;20556;-83
2022/08/05 12:18:54;;;;;;;4.60;2.07;;;29.60;53.40;;;;;;5025202;28;20505;-83
2022/08/05 12:21:25;;;;;;;4.60;2.30;;;29.70;53.50;;;;;;5027461;28;20479;-83
2022/08/05 12:24:01;;;;;;;4.83;2.73;;;29.70;53.50;;;;;;5024399;28;20493;-83
2022/08/05 12:26:32;;;;;;;5.07;2.40;;;29.70;53.40;;;;;;5014343;28;20885;-83
2022/08/05 12:29:03;;;;;;;5.23;2.77;;;29.70;53.50;;;;;;5027030;28;20529;-83
2022/08/05 12:31:32;;;;;;;6.03;2.90;;;29.70;53.60;;;;;;5027408;28;20545;-83
2022/08/05 12:34:16;;;;;;;4.70;2.07;;;29.70;53.70;;;;;;5024992;28;20537;-83
2022/08/05 12:36:52;;;;;;;6.60;2.80;;;29.80;53.60;;;;;;5028479;28;20451;-83
2022/08/05 12:39:21;;;;;;;6.10;2.80;;;29.70;53.60;;;;;;5028036;28;20445;-83
2022/08/05 12:41:58;;;;;;;5.40;2.73;;;29.70;53.90;;;;;;5006895;28;20618;-83
2022/08/05 12:44:27;;;;;;;6.23;2.70;;;29.70;54.00;;;;;;5026700;28;20464;-83
2022/08/05 12:47:02;;;;;;;4.97;2.50;;;29.70;54.10;;;;;;5023285;28;20531;-82
2022/08/05 12:49:41;;;;;;;4.43;2.43;;;29.70;54.30;;;;;;5017390;28;20973;-82
2022/08/05 12:52:29;;;;;;;5.30;2.80;;;29.80;54.30;;;;;;5025500;28;20486;-82
2022/08/05 12:55:17;;;;;;;4.80;2.50;;;29.80;54.30;;;;;;5022540;28;20445;-82
2022/08/05 12:57:51;;;;;;;6.33;2.50;;;29.80;54.30;;;;;;5025171;28;20495;-82
2022/08/05 13:00:44;;;;;;;6.70;2.87;;;29.80;54.60;;;;;;5010531;28;20992;-82
2022/08/05 13:03:34;;;;;;;5.40;3.07;;;29.90;54.70;;;;;;5024862;28;20481;-82
2022/08/05 13:06:09;;;;;;;4.97;3.00;;;29.90;54.70;;;;;;5025640;28;20501;-82
2022/08/05 13:08:38;;;;;;;5.40;3.00;;;29.90;54.70;;;;;;5024119;28;20465;-82
2022/08/05 13:11:07;;;;;;;7.20;3.50;;;29.90;54.80;;;;;;5021950;28;20495;-82
2022/08/05 13:13:39;;;;;;;5.70;2.73;;;30.00;54.80;;;;;;5022136;28;20458;-82
2022/08/05 13:16:28;;;;;;;6.50;3.47;;;29.90;54.90;;;;;;5024140;28;20911;-82
2022/08/05 13:18:56;;;;;;;5.90;3.40;;;29.90;55.20;;;;;;5024722;28;20460;-82
2022/08/05 13:21:26;;;;;;;6.23;2.90;;;29.90;55.20;;;;;;5024720;28;20995;-82
2022/08/05 13:24:05;;;;;;;5.90;2.90;;;29.90;55.20;;;;;;5022974;28;20542;-83
2022/08/05 13:26:35;;;;;;;6.10;3.27;;;30.00;55.30;;;;;;5023409;28;20491;-82
2022/08/05 13:29:04;;;;;;;5.03;2.50;;;30.00;55.20;;;;;;5024338;28;20453;-81
2022/08/05 13:31:34;;;;;;;5.20;3.03;;;30.00;55.10;;;;;;5025412;28;20479;-83
2022/08/05 13:34:22;;;;;;;4.93;3.10;;;30.00;55.10;;;;;;5025361;28;20471;-82
2022/08/05 13:36:53;;;;;;;5.60;2.60;;;30.00;55.00;;;;;;5023471;28;20539;-82
2022/08/05 13:39:21;;;;;;;5.87;2.30;;;29.80;54.80;;;;;;5011943;28;20458;-83
2022/08/05 13:42:10;;;;;;;4.80;2.50;;;29.70;55.00;;;;;;5024654;28;20572;-83